Latest Weather Observations for Mount Buller

IDV60801

Issued at 10:02 pm EST Wednesday 5 August 2015 (issued every 30 minutes, with the page automatically refreshed every 10 minutes)

About weather observations | Map of weather stations | Latest weather observations for VIC | Other Formats
Station Details ID: 083024 Name: MOUNT BULLER Lat: -37.15 Lon: 146.44 Height: 1707.0 m
Data from the previous 72 hours. | See also: Recent months at Mount Buller
Date/Time
EST
Temp
°C
App
Temp
°C
Dew
Point
Rel
Hum
%
Delta-T
°C
Wind Press
QNH
hPa
Press
MSL
hPa
Rain
since 9 am
mm
Dir
 
Spd
km/h
Gust
km/h
Spd
kts
Gust
kts
05/10:00pm -4.7 - -5.1 97 -0.1 - - - - - - - 4.2
05/09:30pm -4.6 - -5.0 97 -0.1 - - - - - - - 4.0
05/09:00pm -4.4 - -4.8 97 -0.1 - - - - - - - 3.8
05/08:30pm -4.3 - -4.7 97 -0.1 - - - - - - - 3.8
05/08:00pm -4.2 - -4.6 97 0.0 - - - - - - - 3.8
05/07:30pm -4.2 - -4.6 97 0.0 - - - - - - - 3.6
05/07:00pm -4.2 - -4.6 97 0.0 - - - - - - - 3.4
05/06:30pm -4.0 - -4.4 97 0.0 - - - - - - - 3.2
05/06:00pm -3.7 - -4.0 98 -0.1 - - - - - - - 2.8
05/05:30pm -3.6 - -3.9 98 -0.1 - - - - - - - 2.8
05/05:00pm -3.5 - -3.8 98 -0.1 - - - - - - - 2.4
05/04:30pm -3.5 - -3.8 98 -0.1 - - - - - - - 2.2
05/04:00pm -3.1 - -3.4 98 0.0 - - - - - - - 2.0
05/03:30pm -3.0 - -3.3 98 0.0 - - - - - - - 1.6
05/03:00pm -3.0 - -3.3 98 0.0 - - - - - - - 1.2
05/02:30pm -3.2 - -3.5 98 0.0 - - - - - - - 0.8
05/02:00pm -3.1 - -3.4 98 0.0 - - - - - - - 0.4
05/01:30pm -3.2 - -3.5 98 0.0 - - - - - - - 0.4
05/01:00pm -3.1 - -3.4 98 0.0 - - - - - - - 0.4
05/12:30pm -3.0 - -3.3 98 0.0 - - - - - - - 0.2
05/12:00pm -3.1 - -3.4 98 0.0 - - - - - - - 0.0
05/11:30am -2.8 - -2.9 99 -0.1 - - - - - - - 0.0
05/11:00am -2.8 - -2.9 99 -0.1 - - - - - - - 0.0
05/10:30am -3.1 - -3.4 98 0.0 - - - - - - - 0.0
05/10:00am -2.8 - -2.9 99 -0.1 - - - - - - - 0.0
05/09:30am -3.0 - -3.3 98 0.0 - - - - - - - 0.0
05/09:00am -2.4 - -2.5 99 -0.1 - - - - - - - 0.0
05/08:30am -2.5 - -2.6 99 -0.1 - - - - - - - 0.0
05/08:00am -2.6 - -2.7 99 -0.1 - - - - - - - 0.0
05/07:30am -2.6 - -2.7 99 -0.1 - - - - - - - 0.0
05/07:00am -2.4 - -2.5 99 -0.1 - - - - - - - 0.0
05/06:30am -2.4 - -2.5 99 -0.1 - - - - - - - 0.0
05/06:00am -2.7 - -2.8 99 -0.1 - - - - - - - 0.0
05/05:30am -2.7 - -2.8 99 -0.1 - - - - - - - 0.0
05/05:00am -2.7 - -2.8 99 -0.1 - - - - - - - 0.0
05/04:30am -2.6 - -2.7 99 -0.1 - - - - - - - 0.0
05/04:00am -2.4 - -2.5 99 -0.1 - - - - - - - 0.0
05/03:30am -2.7 - -2.8 99 -0.1 - - - - - - - 0.0
05/03:00am -2.8 - -2.9 99 -0.1 - - - - - - - 0.0
05/02:30am -3.0 - -3.3 98 0.0 - - - - - - - 0.0
05/02:00am -3.3 - -3.6 98 0.0 - - - - - - - 0.0
05/01:30am -3.3 - -3.6 98 0.0 - - - - - - - 0.0
05/01:00am -3.5 - -3.8 98 -0.1 - - - - - - - 0.0
05/12:30am -3.6 - -3.9 98 -0.1 - - - - - - - 0.0
05/12:00am -3.9 - -4.2 98 -0.1 - - - - - - - 0.0
 
Date/Time
EST
Temp
°C
App
Temp
°C
Dew
Point
Rel
Hum
%
Delta-T
°C
Wind Press
QNH
hPa
Press
MSL
hPa
Rain
since 9 am
mm
Dir
 
Spd
km/h
Gust
km/h
Spd
kts
Gust
kts
04/11:30pm -4.0 - -4.4 97 0.0 - - - - - - - 0.0
04/11:00pm -4.2 - -4.6 97 0.0 - - - - - - - 0.0
04/10:30pm -4.5 - -4.9 97 -0.1 - - - - - - - 0.0
04/10:00pm -4.9 - -5.4 96 0.0 - - - - - - - 0.0
04/09:30pm -4.9 - -5.4 96 0.0 - - - - - - - 0.0
04/09:00pm -5.0 - -5.5 96 0.0 - - - - - - - 0.0
04/08:30pm -5.2 - -5.7 96 -0.1 - - - - - - - 0.0
04/08:00pm -5.3 - -5.8 96 -0.1 - - - - - - - 0.0
04/07:30pm -5.4 - -5.9 96 -0.1 - - - - - - - 0.0
04/07:00pm -5.5 - -6.0 96 -0.1 - - - - - - - 0.0
04/06:30pm -5.5 - -6.0 96 -0.1 - - - - - - - 0.0
04/06:00pm -5.5 - -6.0 96 -0.1 - - - - - - - 0.0
04/05:30pm -5.5 - -6.0 96 -0.1 - - - - - - - 0.0
04/05:00pm -5.5 - -6.0 96 -0.1 - - - - - - - 0.0
04/04:30pm -5.5 - -6.0 96 -0.1 - - - - - - - 0.0
04/04:00pm -5.4 - -5.9 96 -0.1 - - - - - - - 0.0
04/03:30pm -5.3 - -5.8 96 -0.1 - - - - - - - 0.0
04/03:00pm -5.2 - -5.7 96 -0.1 - - - - - - - 0.0
04/02:30pm -4.9 - -5.3 97 -0.1 - - - - - - - 0.0
04/02:00pm -4.9 - -5.4 96 0.0 - - - - - - - 0.0
04/01:30pm -4.8 - -5.2 97 -0.1 - - - - - - - 0.0
04/01:00pm -4.9 - -5.3 97 -0.1 - - - - - - - 0.0
04/12:30pm -4.9 - -5.3 97 -0.1 - - - - - - - 0.0
04/12:00pm -5.3 - -5.8 96 -0.1 - - - - - - - 0.0
04/11:30am -5.6 - -6.1 96 -0.1 - - - - - - - 0.0
04/11:00am -6.0 - -6.7 95 0.0 - - - - - - - 0.0
04/10:30am -6.5 - -7.2 95 0.0 - - - - - - - 0.0
04/10:00am -6.7 - -7.4 95 0.0 - - - - - - - 0.0
04/09:30am -7.0 - -7.8 94 0.0 - - - - - - - 0.0
04/09:00am -7.0 - -7.8 94 0.0 - - - - - - - 1.6
04/08:30am -7.0 - -7.8 94 0.0 - - - - - - - 1.6
04/08:00am -7.0 - -7.8 94 0.0 - - - - - - - 1.6
04/07:30am -7.2 - -8.0 94 0.0 - - - - - - - 1.6
04/07:00am -7.1 - -7.9 94 0.0 - - - - - - - 1.6
04/06:30am -6.9 - -7.7 94 0.0 - - - - - - - 1.6
04/06:00am -6.9 - -7.7 94 0.0 - - - - - - - 1.6
04/05:30am -6.9 - -7.7 94 0.0 - - - - - - - 1.6
04/05:00am -6.9 - -7.7 94 0.0 - - - - - - - 1.6
04/04:30am -7.0 - -7.8 94 0.0 - - - - - - - 1.6
04/04:00am -6.9 - -7.7 94 0.0 - - - - - - - 1.6
04/03:30am -6.9 - -7.6 95 -0.1 - - - - - - - 1.6
04/03:00am -6.9 - -7.6 95 -0.1 - - - - - - - 1.6
04/02:30am -6.9 - -7.6 95 -0.1 - - - - - - - 1.6
04/02:00am -6.8 - -7.5 95 0.0 - - - - - - - 1.6
04/01:30am -6.6 - -7.3 95 0.0 - - - - - - - 1.6
04/01:00am -6.3 - -7.0 95 0.0 - - - - - - - 1.6
04/12:30am -6.1 - -6.8 95 0.0 - - - - - - - 1.6
04/12:00am -6.3 - -7.0 95 0.0 - - - - - - - 1.6
 
Date/Time
EST
Temp
°C
App
Temp
°C
Dew
Point
Rel
Hum
%
Delta-T
°C
Wind Press
QNH
hPa
Press
MSL
hPa
Rain
since 9 am
mm
Dir
 
Spd
km/h
Gust
km/h
Spd
kts
Gust
kts
03/11:30pm -6.4 - -7.1 95 0.0 - - - - - - - 1.6
03/11:00pm -6.0 - -6.7 95 0.0 - - - - - - - 1.6
03/10:30pm -5.9 - -6.4 96 -0.1 - - - - - - - 1.6
03/10:00pm -5.9 - -6.4 96 -0.1 - - - - - - - 1.6
03/09:30pm -6.0 - -6.5 96 -0.1 - - - - - - - 1.6
03/09:00pm -6.0 - -6.5 96 -0.1 - - - - - - - 1.6
03/08:30pm -6.4 - -7.1 95 0.0 - - - - - - - 1.6
03/08:00pm -6.4 - -7.1 95 0.0 - - - - - - - 1.6
03/07:30pm -6.3 - -7.0 95 0.0 - - - - - - - 1.6
03/07:00pm -6.2 - -6.9 95 0.0 - - - - - - - 1.6
03/06:30pm -6.1 - -6.8 95 0.0 - - - - - - - 1.6
03/06:00pm -5.8 - -6.3 96 -0.1 - - - - - - - 1.6
03/05:30pm -5.8 - -6.3 96 -0.1 - - - - - - - 1.6
03/05:00pm -5.9 - -6.4 96 -0.1 - - - - - - - 1.6
03/04:30pm -5.8 - -6.3 96 -0.1 - - - - - - - 1.6
03/04:00pm -5.7 - -6.2 96 -0.1 - - - - - - - 1.6
03/03:30pm -5.4 - -5.9 96 -0.1 - - - - - - - 1.6
03/03:00pm -5.4 - -5.9 96 -0.1 - - - - - - - 1.6
03/02:30pm -5.5 - -6.0 96 -0.1 - - - - - - - 1.6
03/02:00pm -5.4 - -5.9 96 -0.1 - - - - - - - 1.6
03/01:30pm -5.5 - -6.0 96 -0.1 - - - - - - - 1.6
03/01:00pm -5.3 - -5.8 96 -0.1 - - - - - - - 1.6
03/12:30pm -5.6 - -6.1 96 -0.1 - - - - - - - 1.6
03/12:00pm -5.4 - -5.9 96 -0.1 - - - - - - - 1.6
03/11:30am -4.8 - -5.2 97 -0.1 - - - - - - - 1.6
03/11:00am -4.2 - -4.6 97 0.0 - - - - - - - 1.4
03/10:30am -4.1 - -4.5 97 0.0 - - - - - - - 1.2
03/10:00am -4.0 - -4.3 98 -0.1 - - - - - - - 0.8
03/09:30am -4.0 - -4.4 97 0.0 - - - - - - - 0.6
03/09:00am -3.0 - -3.1 99 -0.1 - - - - - - - 17.0
03/08:30am -3.1 - -3.4 98 0.0 - - - - - - - 17.0
03/08:00am -3.0 - -3.1 99 -0.1 - - - - - - - 16.6
03/07:30am -2.8 - -2.9 99 -0.1 - - - - - - - 16.2
03/07:00am -2.5 - -2.6 99 -0.1 - - - - - - - 15.4
03/06:30am -2.4 - -2.5 99 -0.1 - - - - - - - 14.4
03/06:00am -2.5 - -2.6 99 -0.1 - - - - - - - 13.6
03/05:30am -2.4 - -2.5 99 -0.1 - - - - - - - 13.0
03/05:00am -2.4 - -2.5 99 -0.1 - - - - - - - 12.6
03/04:30am -2.4 - -2.5 99 -0.1 - - - - - - - 11.8
03/04:00am -2.3 - -2.4 99 -0.1 - - - - - - - 11.0
03/03:30am -2.5 - -2.6 99 -0.1 - - - - - - - 10.2
03/03:00am -2.5 - -2.6 99 -0.1 - - - - - - - 10.2
03/02:30am -2.5 - -2.6 99 -0.1 - - - - - - - 10.0
03/02:00am -2.4 - -2.5 99 -0.1 - - - - - - - 9.8
03/01:30am -2.2 - -2.3 99 -0.1 - - - - - - - 9.0
03/01:00am -1.8 - -1.8 100 0.0 - - - - - - - 8.0
03/12:30am -1.8 - -1.8 100 0.0 - - - - - - - 7.0
03/12:00am -1.4 - -1.4 100 0.0 - - - - - - - 5.8
 
Date/Time
EST
Temp
°C
App
Temp
°C
Dew
Point
Rel
Hum
%
Delta-T
°C
Wind Press
QNH
hPa
Press
MSL
hPa
Rain
since 9 am
mm
Dir
 
Spd
km/h
Gust
km/h
Spd
kts
Gust
kts
02/11:30pm -1.5 - -1.5 100 0.0 - - - - - - - 5.4
02/11:00pm -1.1 - -1.1 100 0.0 - - - - - - - 5.2
02/10:30pm -1.0 - -1.0 100 0.0 - - - - - - - 5.0

Other Formats:

Comma delimited format used in spreadsheet applications
http://www.bom.gov.au/fwo/IDV60801/IDV60801.94894.axf

JavaScript Object Notation format (JSON) in row-major order
http://www.bom.gov.au/fwo/IDV60801/IDV60801.94894.json